Time;durP1;ratioP1;P1;durP2;ratioP2;P2;SDS_P1;SDS_P2;PMS_P1;PMS_P2;Temp;Humidity;BMP_temperature;BMP_pressure;BME280_temperature;BME280_humidity;BME280_pressure;Samples;Min_cycle;Max_cycle;Signal;HPM_P1;HPM_P2
2023/07/25 00:03:41;;;;;;;2.65;2.20;;;19.50;96.60;;;;;;10561304;28;20208;-88
2023/07/25 00:08:43;;;;;;;2.30;2.03;;;19.50;95.10;;;;;;10560852;28;20229;-88
2023/07/25 00:13:46;;;;;;;4.03;2.50;;;19.60;95.80;;;;;;10566116;28;20274;-88
2023/07/25 00:18:50;;;;;;;3.88;2.10;;;19.80;95.20;;;;;;10573301;28;20197;-88
2023/07/25 00:23:53;;;;;;;3.13;2.25;;;19.90;94.20;;;;;;10571389;28;20253;-88
2023/07/25 00:28:55;;;;;;;2.88;2.22;;;20.00;93.00;;;;;;10568724;28;20201;-88
2023/07/25 00:33:58;;;;;;;2.75;2.05;;;20.10;91.90;;;;;;10568260;28;20217;-89
2023/07/25 00:39:00;;;;;;;2.83;1.92;;;20.10;90.20;;;;;;10587502;28;20189;-88
2023/07/25 00:44:03;;;;;;;2.83;2.35;;;20.20;91.10;;;;;;10552267;28;20208;-89
2023/07/25 00:49:06;;;;;;;2.05;1.85;;;20.20;91.10;;;;;;10587069;28;20541;-88
2023/07/25 00:54:08;;;;;;;1.95;1.40;;;20.30;88.50;;;;;;10587459;28;20246;-88
2023/07/25 00:59:11;;;;;;;2.35;1.63;;;20.10;94.20;;;;;;10567907;28;20201;-88
2023/07/25 01:04:14;;;;;;;2.40;2.17;;;19.90;92.80;;;;;;10568540;28;20212;-88
2023/07/25 01:09:34;;;;;;;2.90;2.33;;;20.00;92.80;;;;;;10567598;28;20229;-88
2023/07/25 01:14:38;;;;;;;2.40;2.10;;;20.00;92.30;;;;;;10586381;28;20212;-88
2023/07/25 01:19:43;;;;;;;2.65;1.90;;;20.00;93.80;;;;;;10567634;28;20244;-88
2023/07/25 01:24:47;;;;;;;1.98;1.25;;;19.90;93.70;;;;;;10549780;28;20227;-88
2023/07/25 01:29:50;;;;;;;4.15;1.95;;;19.80;95.70;;;;;;10567344;28;20250;-88
2023/07/25 01:34:52;;;;;;;3.75;1.92;;;19.90;91.50;;;;;;10584153;28;20225;-88
2023/07/25 01:39:55;;;;;;;2.35;1.65;;;20.00;92.30;;;;;;10566929;28;20197;-88
2023/07/25 01:44:57;;;;;;;3.15;2.10;;;19.90;93.40;;;;;;10567384;28;20189;-89
2023/07/25 01:50:00;;;;;;;2.65;1.80;;;19.70;94.20;;;;;;10565858;28;20204;-88
2023/07/25 01:55:03;;;;;;;3.13;1.90;;;19.60;95.30;;;;;;10566520;28;20294;-88
2023/07/25 02:00:06;;;;;;;2.58;2.00;;;19.50;96.40;;;;;;10565438;28;20265;-88
2023/07/25 02:05:13;;;;;;;9.25;1.92;;;19.20;96.20;;;;;;10584296;28;20217;-88
2023/07/25 02:10:16;;;;;;;2.45;2.10;;;18.90;99.90;;;;;;10583710;28;20569;-87
2023/07/25 02:15:19;;;;;;;2.13;1.60;;;18.90;98.40;;;;;;10583292;28;20577;-88
2023/07/25 02:20:25;;;;;;;1.95;1.50;;;18.80;97.80;;;;;;10564380;28;20208;-88
2023/07/25 02:25:28;;;;;;;2.75;1.52;;;18.70;99.00;;;;;;10564500;28;20265;-88
2023/07/25 02:30:31;;;;;;;2.15;1.95;;;18.60;98.50;;;;;;10564786;28;20254;-88
2023/07/25 02:35:34;;;;;;;3.40;1.98;;;18.60;99.90;;;;;;10563371;28;20243;-87
2023/07/25 02:40:37;;;;;;;2.60;1.83;;;18.60;99.90;;;;;;10582634;28;20207;-89
2023/07/25 02:45:40;;;;;;;2.47;1.80;;;18.80;98.30;;;;;;10582453;28;20246;-88
2023/07/25 02:50:43;;;;;;;2.30;1.63;;;18.90;97.80;;;;;;10582422;28;20204;-88
2023/07/25 02:55:45;;;;;;;2.25;2.03;;;19.00;97.60;;;;;;10564470;28;20259;-88
2023/07/25 03:00:48;;;;;;;2.08;1.77;;;19.00;96.00;;;;;;10582683;28;20189;-88
2023/07/25 03:05:51;;;;;;;3.22;1.75;;;19.20;95.50;;;;;;10558273;28;20610;-88
2023/07/25 03:10:54;;;;;;;3.13;1.70;;;19.30;95.10;;;;;;10521250;28;20205;-88
2023/07/25 03:15:57;;;;;;;3.53;1.88;;;19.30;94.50;;;;;;10539376;28;20239;-88
2023/07/25 03:20:59;;;;;;;2.33;2.13;;;19.30;96.80;;;;;;10520428;28;20278;-88
2023/07/25 03:26:03;;;;;;;4.50;2.45;;;19.30;96.30;;;;;;10504167;28;20224;-88
2023/07/25 03:31:06;;;;;;;2.65;1.58;;;19.30;97.00;;;;;;10538477;28;20194;-88
2023/07/25 03:36:09;;;;;;;2.47;2.13;;;19.20;95.00;;;;;;10519827;28;20282;-88
2023/07/25 03:41:12;;;;;;;3.63;2.20;;;19.20;95.00;;;;;;10520386;28;20246;-88
2023/07/25 03:46:14;;;;;;;4.72;1.92;;;19.80;92.10;;;;;;10519533;28;20206;-89
2023/07/25 03:51:17;;;;;;;5.10;2.30;;;20.00;91.00;;;;;;10519668;28;20206;-89
2023/07/25 03:56:19;;;;;;;5.90;3.05;;;19.80;93.50;;;;;;10536973;28;20683;-88
2023/07/25 04:01:22;;;;;;;2.30;2.08;;;19.60;93.00;;;;;;10537908;28;20273;-89
2023/07/25 04:06:25;;;;;;;3.33;2.88;;;20.00;91.00;;;;;;10518876;28;20255;-88
2023/07/25 04:11:27;;;;;;;2.67;2.47;;;19.80;92.30;;;;;;10519183;28;20201;-88
2023/07/25 04:16:32;;;;;;;3.80;3.00;;;19.50;93.50;;;;;;10537968;28;20598;-88
2023/07/25 04:21:34;;;;;;;4.28;3.30;;;19.60;93.40;;;;;;10537388;28;20190;-88
2023/07/25 04:26:37;;;;;;;4.93;3.60;;;19.60;92.80;;;;;;10520106;28;20197;-89
2023/07/25 04:31:40;;;;;;;2.90;2.40;;;19.50;94.00;;;;;;10521170;28;20193;-88
2023/07/25 04:36:43;;;;;;;4.15;3.25;;;19.70;92.30;;;;;;10536735;28;20632;-87
2023/07/25 04:41:45;;;;;;;3.42;2.95;;;19.90;92.60;;;;;;10518050;28;20258;-88
2023/07/25 04:46:48;;;;;;;3.05;2.78;;;20.00;92.10;;;;;;10537426;28;20190;-88
2023/07/25 04:51:50;;;;;;;3.58;2.80;;;20.10;92.20;;;;;;10518657;28;20636;-88
2023/07/25 04:56:53;;;;;;;3.70;3.17;;;20.10;90.90;;;;;;10519031;28;20556;-88
2023/07/25 05:01:55;;;;;;;4.25;2.63;;;20.00;92.70;;;;;;10525741;28;20248;-88
2023/07/25 05:06:58;;;;;;;4.68;4.07;;;20.00;91.10;;;;;;10525728;28;20259;-88
2023/07/25 05:12:04;;;;;;;2.92;2.40;;;20.20;91.70;;;;;;10543627;28;20221;-88
2023/07/25 05:17:06;;;;;;;3.08;2.45;;;20.10;90.40;;;;;;10526244;28;20255;-88
2023/07/25 05:22:09;;;;;;;3.50;2.30;;;20.30;87.60;;;;;;10525266;28;20327;-88
2023/07/25 05:27:11;;;;;;;3.17;2.78;;;20.30;89.00;;;;;;10524544;28;20664;-88
2023/07/25 05:32:14;;;;;;;5.30;2.58;;;20.00;91.30;;;;;;10525119;28;20233;-88
2023/07/25 05:37:18;;;;;;;3.65;3.17;;;20.20;89.80;;;;;;10543018;28;20206;-88
2023/07/25 05:42:20;;;;;;;5.00;3.72;;;20.00;90.90;;;;;;10542858;28;20560;-88
2023/07/25 05:47:23;;;;;;;5.38;2.97;;;20.10;91.30;;;;;;10524115;28;20210;-88
2023/07/25 05:52:25;;;;;;;4.70;3.10;;;20.10;90.90;;;;;;10542329;28;20284;-88
2023/07/25 05:57:28;;;;;;;2.35;2.15;;;20.20;90.20;;;;;;10542328;28;20563;-88
2023/07/25 06:02:31;;;;;;;3.17;2.88;;;20.20;88.60;;;;;;10523312;28;20201;-88
2023/07/25 06:07:33;;;;;;;3.38;2.58;;;20.40;87.70;;;;;;10540867;28;20646;-87
2023/07/25 06:12:36;;;;;;;2.40;2.05;;;20.40;85.90;;;;;;10540807;28;20263;-88
2023/07/25 06:17:38;;;;;;;2.80;2.28;;;20.30;87.90;;;;;;10541289;28;20541;-88
2023/07/25 06:22:41;;;;;;;4.20;2.42;;;20.30;88.10;;;;;;10540012;28;20629;-88
2023/07/25 06:27:44;;;;;;;3.28;2.95;;;20.60;83.10;;;;;;10540606;28;20600;-88
2023/07/25 06:32:46;;;;;;;2.88;2.60;;;20.60;82.00;;;;;;10541157;28;20290;-88
2023/07/25 06:37:49;;;;;;;2.78;2.33;;;20.50;85.40;;;;;;10539605;28;20232;-88
2023/07/25 06:42:52;;;;;;;2.85;2.50;;;20.50;83.80;;;;;;10540022;28;20206;-88
2023/07/25 06:47:54;;;;;;;2.17;1.98;;;20.70;82.90;;;;;;10540565;28;20251;-88
2023/07/25 06:52:57;;;;;;;7.05;2.97;;;21.00;80.00;;;;;;10522292;28;20210;-88
2023/07/25 06:58:00;;;;;;;3.50;2.97;;;21.20;79.70;;;;;;10539826;28;20194;-88
2023/07/25 07:03:03;;;;;;;2.78;2.40;;;20.80;82.60;;;;;;10538847;28;20259;-88
2023/07/25 07:08:05;;;;;;;7.90;3.50;;;20.60;80.70;;;;;;10539066;28;20284;-88
2023/07/25 07:13:09;;;;;;;4.30;2.95;;;20.80;81.80;;;;;;10538046;28;20247;-88
2023/07/25 07:18:12;;;;;;;3.05;2.42;;;20.90;80.50;;;;;;10538383;28;20198;-88
2023/07/25 07:23:15;;;;;;;3.88;1.95;;;21.10;76.40;;;;;;10519712;28;20258;-88
2023/07/25 07:28:18;;;;;;;2.83;2.17;;;21.30;75.50;;;;;;10537897;28;20197;-88
2023/07/25 07:33:21;;;;;;;4.55;2.67;;;21.40;71.90;;;;;;10520025;28;20221;-88
2023/07/25 07:38:24;;;;;;;2.80;2.45;;;21.20;75.30;;;;;;10538196;28;20312;-88
2023/07/25 07:43:26;;;;;;;2.55;2.35;;;21.20;74.30;;;;;;10538239;28;20231;-88
2023/07/25 07:48:29;;;;;;;4.00;2.60;;;21.30;73.10;;;;;;10538093;28;20228;-88
2023/07/25 07:53:31;;;;;;;2.20;1.92;;;21.30;73.10;;;;;;10537638;28;20217;-88
2023/07/25 07:58:34;;;;;;;4.53;2.83;;;21.10;72.60;;;;;;10537849;28;20298;-88
2023/07/25 08:03:37;;;;;;;2.88;2.40;;;20.90;75.30;;;;;;10537043;28;20218;-88
2023/07/25 08:08:40;;;;;;;7.30;2.92;;;21.00;72.90;;;;;;10536584;28;20237;-88
2023/07/25 08:13:43;;;;;;;2.63;2.08;;;21.40;72.40;;;;;;10536796;28;20778;-88
2023/07/25 08:18:46;;;;;;;2.83;2.30;;;21.60;69.30;;;;;;10537704;28;20194;-88
2023/07/25 08:23:48;;;;;;;3.67;3.10;;;21.90;66.30;;;;;;10518716;28;20201;-88
2023/07/25 08:28:51;;;;;;;3.20;2.42;;;21.70;69.60;;;;;;10519268;28;20202;-89
2023/07/25 08:33:53;;;;;;;3.28;2.53;;;21.70;67.30;;;;;;10522736;28;20699;-89
2023/07/25 08:38:57;;;;;;;3.28;2.90;;;21.90;66.10;;;;;;10529467;28;20185;-88
2023/07/25 08:44:01;;;;;;;2.50;2.30;;;21.80;65.60;;;;;;10544261;28;20741;-88
2023/07/25 08:49:09;;;;;;;7.13;3.35;;;21.70;65.20;;;;;;10526290;28;20201;-88
2023/07/25 08:54:14;;;;;;;3.78;3.45;;;21.80;67.80;;;;;;10544491;28;20218;-88
2023/07/25 08:59:18;;;;;;;4.45;2.35;;;21.70;65.40;;;;;;10544231;28;20567;-88
2023/07/25 09:04:22;;;;;;;3.25;2.95;;;21.90;64.00;;;;;;10526293;28;20201;-88
2023/07/25 09:09:24;;;;;;;2.72;1.65;;;21.90;61.30;;;;;;10525460;28;20251;-88
2023/07/25 09:14:27;;;;;;;3.47;2.58;;;21.90;61.40;;;;;;10524997;28;20225;-88
2023/07/25 09:19:30;;;;;;;3.38;3.08;;;22.20;60.80;;;;;;10543350;28;20274;-88
2023/07/25 09:24:39;;;;;;;5.95;3.17;;;22.40;61.40;;;;;;10525025;28;20210;-88
2023/07/25 09:29:43;;;;;;;2.75;2.47;;;22.40;60.60;;;;;;10543272;28;20247;-88
2023/07/25 09:34:46;;;;;;;4.50;2.97;;;22.30;59.00;;;;;;10542481;28;20229;-88
2023/07/25 09:39:49;;;;;;;2.50;2.30;;;22.40;60.20;;;;;;10543203;28;20615;-87
2023/07/25 09:44:56;;;;;;;3.67;2.63;;;22.40;58.40;;;;;;10542503;28;20264;-88
2023/07/25 09:49:59;;;;;;;5.32;3.40;;;22.20;62.30;;;;;;10542615;28;20197;-88
2023/07/25 09:55:01;;;;;;;3.22;2.83;;;22.20;62.30;;;;;;10542252;28;20213;-89
2023/07/25 10:00:06;;;;;;;3.15;2.85;;;22.30;58.90;;;;;;10523571;28;20206;-89
2023/07/25 10:05:10;;;;;;;3.22;2.35;;;22.40;57.50;;;;;;10541204;28;20209;-88
2023/07/25 10:10:13;;;;;;;3.55;2.63;;;22.30;57.70;;;;;;10541898;28;20607;-88
2023/07/25 10:15:17;;;;;;;2.63;2.42;;;22.50;56.80;;;;;;10523089;28;20302;-88
2023/07/25 10:20:24;;;;;;;2.30;2.10;;;22.60;53.20;;;;;;10523011;28;20613;-88
2023/07/25 10:25:28;;;;;;;2.88;2.67;;;22.40;53.50;;;;;;10523366;28;20220;-88
2023/07/25 10:30:33;;;;;;;3.28;2.30;;;22.40;54.10;;;;;;10506275;28;20197;-88
2023/07/25 10:35:54;;;;;;;4.82;2.20;;;22.60;53.70;;;;;;10506205;28;20585;-88
2023/07/25 10:41:09;;;;;;;4.82;2.45;;;22.80;51.80;;;;;;10540446;28;20189;-88
2023/07/25 10:46:20;;;;;;;5.88;2.70;;;23.00;49.20;;;;;;10540268;28;20194;-89
2023/07/25 10:51:23;;;;;;;11.38;2.55;;;23.10;49.50;;;;;;10539583;28;20205;-88
2023/07/25 10:56:25;;;;;;;2.35;2.15;;;23.20;48.40;;;;;;10520558;28;20280;-88
2023/07/25 11:01:37;;;;;;;2.95;2.13;;;23.10;47.80;;;;;;10539167;28;20610;-88
2023/07/25 11:06:39;;;;;;;4.57;2.20;;;23.10;47.40;;;;;;10539361;28;20255;-88
2023/07/25 11:11:46;;;;;;;2.35;2.15;;;23.00;47.50;;;;;;10538540;28;20231;-89
2023/07/25 11:16:51;;;;;;;1.65;1.45;;;22.90;47.40;;;;;;10538449;28;20259;-88
2023/07/25 11:21:54;;;;;;;2.30;2.10;;;22.80;44.70;;;;;;10520307;28;20205;-88
2023/07/25 11:27:02;;;;;;;1.60;1.48;;;22.70;46.60;;;;;;10520713;28;20198;-87
2023/07/25 11:32:05;;;;;;;2.78;2.15;;;23.00;45.60;;;;;;10537917;28;20569;-88
2023/07/25 11:37:10;;;;;;;3.00;2.70;;;22.90;42.70;;;;;;10519714;28;20225;-88
2023/07/25 11:42:14;;;;;;;2.20;2.00;;;23.00;45.20;;;;;;10520307;28;20658;-87
2023/07/25 11:47:17;;;;;;;2.00;1.80;;;22.80;44.20;;;;;;10520542;28;20224;-89
2023/07/25 11:52:20;;;;;;;3.05;2.75;;;22.90;42.50;;;;;;10537882;28;20613;-88
2023/07/25 11:57:22;;;;;;;2.72;1.33;;;22.90;44.20;;;;;;10537820;28;20217;-88
2023/07/25 12:02:26;;;;;;;2.13;1.92;;;22.90;40.80;;;;;;10520183;28;20618;-88
2023/07/25 12:07:50;;;;;;;2.40;1.77;;;22.90;42.50;;;;;;10540845;28;20282;-89
2023/07/25 12:12:56;;;;;;;2.72;2.30;;;22.90;41.50;;;;;;10533326;28;20201;-88
2023/07/25 12:17:59;;;;;;;2.38;2.17;;;23.00;42.70;;;;;;10533195;28;20278;-89
2023/07/25 12:23:07;;;;;;;4.65;1.80;;;23.00;42.40;;;;;;10550901;28;20586;-88
2023/07/25 12:28:10;;;;;;;4.18;1.63;;;23.20;41.00;;;;;;10550639;28;20209;-88
2023/07/25 12:33:12;;;;;;;2.25;1.80;;;23.30;41.10;;;;;;10551420;28;20254;-88
2023/07/25 12:38:15;;;;;;;1.30;1.20;;;23.20;39.60;;;;;;10533079;28;20274;-88
2023/07/25 12:43:18;;;;;;;3.38;1.73;;;22.70;37.70;;;;;;10553557;28;20597;-88
2023/07/25 12:48:21;;;;;;;5.25;2.33;;;22.80;39.60;;;;;;10552864;28;20224;-88
2023/07/25 12:53:24;;;;;;;2.72;1.63;;;23.00;40.70;;;;;;10550672;28;20209;-88
2023/07/25 12:58:29;;;;;;;8.50;2.17;;;23.10;39.20;;;;;;10549705;28;20254;-88
2023/07/25 13:03:40;;;;;;;3.95;1.70;;;23.00;38.80;;;;;;10549724;28;20614;-88
2023/07/25 13:08:43;;;;;;;3.08;1.50;;;23.00;36.70;;;;;;10550213;27;20682;-88
2023/07/25 13:13:46;;;;;;;5.47;1.85;;;22.90;37.20;;;;;;10550776;28;20193;-88
2023/07/25 13:18:48;;;;;;;1.77;1.50;;;22.60;36.70;;;;;;10548199;28;20193;-88
2023/07/25 13:23:51;;;;;;;2.25;1.38;;;22.60;38.40;;;;;;10525370;28;20205;-88
2023/07/25 13:28:53;;;;;;;2.50;2.30;;;22.60;36.20;;;;;;10525290;28;20214;-88
2023/07/25 13:33:56;;;;;;;1.33;1.10;;;23.00;39.10;;;;;;10525533;28;20239;-88
2023/07/25 13:38:58;;;;;;;2.22;2.03;;;23.20;34.60;;;;;;10542916;28;20255;-88
2023/07/25 13:44:01;;;;;;;1.65;1.45;;;23.50;35.60;;;;;;10541805;28;20231;-89
2023/07/25 13:49:04;;;;;;;3.22;1.20;;;23.40;29.70;;;;;;10542934;28;20256;-89
2023/07/25 13:54:06;;;;;;;1.83;1.30;;;23.40;31.20;;;;;;10523627;28;20225;-89
2023/07/25 13:59:11;;;;;;;1.60;1.50;;;23.60;29.10;;;;;;10524288;28;20197;-88
2023/07/25 14:04:13;;;;;;;2.22;1.40;;;23.50;28.70;;;;;;10541785;28;20744;-89
2023/07/25 14:09:19;;;;;;;2.92;1.73;;;23.50;30.30;;;;;;10541725;28;20226;-88
2023/07/25 14:14:22;;;;;;;2.25;1.52;;;23.60;30.70;;;;;;10541052;28;20270;-89
2023/07/25 14:19:24;;;;;;;2.10;2.00;;;23.80;28.90;;;;;;10523112;28;20197;-88
2023/07/25 14:24:27;;;;;;;2.97;1.45;;;23.90;29.90;;;;;;10522696;28;20252;-88
2023/07/25 14:29:30;;;;;;;2.58;2.38;;;23.90;28.30;;;;;;10540667;28;20535;-88
2023/07/25 14:34:32;;;;;;;2.33;1.95;;;24.10;30.20;;;;;;10540137;28;20217;-88
2023/07/25 14:39:35;;;;;;;2.08;1.73;;;24.10;28.80;;;;;;10539841;28;20255;-88
2023/07/25 14:44:37;;;;;;;5.25;2.40;;;24.20;26.70;;;;;;10521751;28;20247;-88
2023/07/25 14:49:40;;;;;;;1.63;1.52;;;24.30;30.20;;;;;;10539714;28;20202;-89
2023/07/25 14:54:42;;;;;;;1.85;1.65;;;24.10;27.70;;;;;;10539961;28;20266;-88
2023/07/25 14:59:45;;;;;;;3.97;1.70;;;24.00;29.20;;;;;;10539069;28;20202;-88
2023/07/25 15:04:48;;;;;;;3.42;2.60;;;23.90;26.70;;;;;;10539980;28;20198;-88
2023/07/25 15:09:51;;;;;;;2.13;1.92;;;23.80;29.30;;;;;;10538544;28;20263;-88
2023/07/25 15:14:53;;;;;;;2.20;2.00;;;23.70;29.20;;;;;;10539632;28;20259;-88
2023/07/25 15:19:58;;;;;;;2.50;1.83;;;23.70;30.60;;;;;;10539000;28;20568;-89
2023/07/25 15:25:01;;;;;;;2.03;1.40;;;23.70;25.80;;;;;;10538066;28;20197;-89
2023/07/25 15:30:05;;;;;;;2.30;1.70;;;23.60;24.60;;;;;;10520552;28;20205;-89
2023/07/25 15:35:09;;;;;;;2.03;1.52;;;23.40;28.20;;;;;;10538537;28;20214;-88
2023/07/25 15:40:11;;;;;;;2.20;1.45;;;23.30;27.60;;;;;;10519284;28;20581;-88
2023/07/25 15:45:14;;;;;;;6.47;1.67;;;23.20;25.70;;;;;;10537718;28;20240;-88
2023/07/25 15:50:18;;;;;;;2.97;1.40;;;23.00;27.50;;;;;;10536809;28;20239;-88
2023/07/25 15:55:21;;;;;;;1.33;1.20;;;23.00;28.10;;;;;;10537523;28;20586;-88
2023/07/25 16:00:26;;;;;;;3.03;1.52;;;23.00;28.40;;;;;;10538052;28;20246;-89
2023/07/25 16:05:29;;;;;;;5.53;1.85;;;22.90;26.50;;;;;;10537602;28;20560;-89
2023/07/25 16:10:31;;;;;;;1.73;1.63;;;22.60;29.60;;;;;;10537412;28;20619;-88
2023/07/25 16:15:34;;;;;;;4.25;2.25;;;22.20;28.30;;;;;;10520171;28;20247;-88
2023/07/25 16:20:37;;;;;;;2.22;1.63;;;21.90;29.40;;;;;;10537334;28;20242;-88
2023/07/25 16:25:39;;;;;;;3.28;1.65;;;21.70;29.20;;;;;;10519056;28;20255;-87
2023/07/25 16:30:43;;;;;;;2.55;1.50;;;21.70;31.20;;;;;;10537283;28;20250;-88
2023/07/25 16:35:45;;;;;;;4.50;2.45;;;21.90;30.90;;;;;;10536798;28;20210;-88
2023/07/25 16:40:50;;;;;;;1.88;1.75;;;22.30;32.70;;;;;;10536981;28;20310;-88
2023/07/25 16:45:52;;;;;;;2.03;1.85;;;22.60;30.60;;;;;;10536326;28;20206;-88
2023/07/25 16:50:55;;;;;;;2.42;1.95;;;23.00;33.70;;;;;;10537361;28;20206;-88
2023/07/25 16:55:58;;;;;;;2.72;1.58;;;23.10;30.00;;;;;;10525388;28;20232;-88
2023/07/25 17:01:01;;;;;;;1.75;1.45;;;22.90;27.10;;;;;;10544613;28;20220;-88
2023/07/25 17:06:04;;;;;;;4.63;1.60;;;22.50;28.70;;;;;;10525653;28;20236;-88
2023/07/25 17:11:11;;;;;;;2.05;1.85;;;22.30;28.90;;;;;;10509161;28;20198;-88
2023/07/25 17:16:13;;;;;;;2.30;2.08;;;22.20;32.90;;;;;;10509308;28;20247;-88
2023/07/25 17:21:16;;;;;;;7.75;2.42;;;22.00;32.80;;;;;;10543587;28;20248;-88
2023/07/25 17:26:39;;;;;;;4.72;3.42;;;21.80;31.90;;;;;;10527648;28;20263;-88
2023/07/25 17:31:41;;;;;;;3.70;2.65;;;21.60;34.00;;;;;;10525570;28;20194;-87
2023/07/25 17:36:44;;;;;;;3.78;2.38;;;21.60;35.70;;;;;;10542814;28;20243;-87
2023/07/25 17:41:46;;;;;;;3.90;1.92;;;21.50;35.00;;;;;;10523918;28;20618;-88
2023/07/25 17:46:49;;;;;;;2.17;1.98;;;21.40;34.70;;;;;;10542961;28;20194;-88
2023/07/25 17:51:52;;;;;;;5.68;2.28;;;21.60;36.90;;;;;;10541692;28;20209;-88
2023/07/25 17:56:54;;;;;;;2.70;1.98;;;21.90;35.10;;;;;;10524715;28;20267;-88
2023/07/25 18:01:57;;;;;;;2.35;1.75;;;21.90;35.50;;;;;;10524698;28;20193;-87
2023/07/25 18:07:00;;;;;;;2.28;1.98;;;21.90;34.20;;;;;;10542010;28;20255;-88
2023/07/25 18:12:03;;;;;;;2.28;2.08;;;21.80;35.80;;;;;;10523479;28;20206;-88
2023/07/25 18:17:05;;;;;;;1.75;1.50;;;21.80;34.40;;;;;;10541911;28;20244;-87
2023/07/25 18:22:09;;;;;;;1.83;1.73;;;21.60;35.90;;;;;;10522767;28;20231;-88
2023/07/25 18:27:11;;;;;;;2.75;1.65;;;21.50;37.20;;;;;;10541299;28;20652;-87
2023/07/25 18:32:14;;;;;;;4.22;1.38;;;21.40;34.40;;;;;;10540908;28;20555;-88
2023/07/25 18:37:16;;;;;;;2.08;1.80;;;21.10;34.90;;;;;;10522093;28;20236;-88
2023/07/25 18:42:19;;;;;;;2.97;1.30;;;20.90;35.40;;;;;;10539285;28;20582;-88
2023/07/25 18:47:21;;;;;;;3.95;1.63;;;20.60;36.20;;;;;;10540809;28;20194;-88
2023/07/25 18:52:36;;;;;;;7.75;1.90;;;20.50;38.80;;;;;;10540126;28;20251;-88
2023/07/25 18:57:39;;;;;;;4.32;1.70;;;20.30;40.70;;;;;;10539590;28;20225;-88
2023/07/25 19:02:41;;;;;;;2.15;1.73;;;20.10;39.90;;;;;;10539774;28;20258;-88
2023/07/25 19:07:44;;;;;;;5.25;2.10;;;19.90;42.80;;;;;;10539015;28;20954;-88
2023/07/25 19:12:47;;;;;;;4.68;1.88;;;19.80;42.60;;;;;;10520559;28;20262;-88
2023/07/25 19:17:50;;;;;;;1.90;1.60;;;19.60;44.30;;;;;;10538247;28;20217;-88
2023/07/25 19:22:52;;;;;;;2.95;1.90;;;19.40;44.30;;;;;;10538881;28;20581;-87
2023/07/25 19:27:55;;;;;;;2.40;2.10;;;19.40;46.50;;;;;;10537714;28;20236;-87
2023/07/25 19:32:57;;;;;;;3.50;1.90;;;19.20;47.40;;;;;;10538043;28;20255;-88
2023/07/25 19:38:00;;;;;;;3.42;1.80;;;19.10;48.60;;;;;;10520346;28;20213;-88
2023/07/25 19:43:03;;;;;;;4.13;2.03;;;19.10;50.30;;;;;;10519782;28;20568;-88
2023/07/25 19:48:06;;;;;;;4.38;1.98;;;18.90;49.10;;;;;;10519815;28;20247;-88
2023/07/25 19:53:08;;;;;;;2.65;1.70;;;18.80;50.20;;;;;;10537862;28;20318;-88
2023/07/25 19:58:11;;;;;;;2.53;1.88;;;18.70;51.60;;;;;;10537341;28;20562;-88
2023/07/25 20:03:13;;;;;;;4.13;1.83;;;18.50;52.70;;;;;;10537940;28;20684;-88
2023/07/25 20:08:16;;;;;;;2.03;1.50;;;18.40;53.10;;;;;;10519482;28;20225;-88
2023/07/25 20:13:19;;;;;;;1.85;1.60;;;18.40;54.90;;;;;;10537863;28;20201;-88
2023/07/25 20:18:21;;;;;;;4.03;1.83;;;18.30;56.10;;;;;;10537449;28;20245;-88
2023/07/25 20:23:24;;;;;;;7.57;2.50;;;18.30;57.10;;;;;;10536257;28;20227;-88
2023/07/25 20:28:27;;;;;;;5.28;2.17;;;18.20;59.80;;;;;;10539828;28;20197;-88
2023/07/25 20:33:32;;;;;;;9.30;2.50;;;18.10;61.90;;;;;;10510689;28;20205;-88
2023/07/25 20:38:35;;;;;;;2.67;2.10;;;18.10;63.50;;;;;;10545278;28;20217;-88
2023/07/25 20:43:38;;;;;;;3.58;2.20;;;18.10;64.90;;;;;;10545403;28;20247;-88
2023/07/25 20:48:40;;;;;;;7.15;1.98;;;18.00;65.20;;;;;;10544892;28;20623;-88
2023/07/25 20:53:43;;;;;;;3.33;1.58;;;18.00;66.30;;;;;;10525662;28;20209;-88
2023/07/25 20:58:46;;;;;;;7.07;2.22;;;18.00;67.80;;;;;;10544551;28;20214;-88
2023/07/25 21:03:48;;;;;;;3.00;2.80;;;18.10;67.60;;;;;;10544551;28;20185;-88
2023/07/25 21:08:51;;;;;;;6.47;2.78;;;18.10;67.90;;;;;;10525609;28;20222;-88
2023/07/25 21:13:53;;;;;;;6.63;2.75;;;18.10;67.50;;;;;;10543950;28;20616;-87
2023/07/25 21:18:56;;;;;;;5.50;2.53;;;17.90;67.90;;;;;;10543911;28;20213;-88
2023/07/25 21:23:58;;;;;;;3.00;2.08;;;17.80;71.00;;;;;;10508310;28;20243;-88
2023/07/25 21:29:01;;;;;;;6.72;2.38;;;17.90;71.70;;;;;;10542698;28;20571;-88
2023/07/25 21:34:04;;;;;;;2.88;2.30;;;17.90;76.90;;;;;;10543324;28;20198;-88
2023/07/25 21:39:07;;;;;;;3.72;2.33;;;17.70;81.60;;;;;;10541292;28;20222;-88
2023/07/25 21:44:09;;;;;;;3.78;2.60;;;17.60;91.90;;;;;;10524299;28;20330;-88
2023/07/25 21:49:12;;;;;;;2.13;1.90;;;17.50;96.00;;;;;;10542338;28;20202;-88
2023/07/25 21:54:14;;;;;;;2.72;2.05;;;17.50;95.00;;;;;;10542595;28;20228;-89
2023/07/25 21:59:17;;;;;;;3.28;2.83;;;17.60;94.50;;;;;;10541820;28;20225;-88
2023/07/25 22:04:20;;;;;;;3.28;2.20;;;17.60;94.90;;;;;;10523516;28;20201;-89
2023/07/25 22:09:22;;;;;;;3.90;3.35;;;17.60;95.30;;;;;;10541709;28;20560;-88
2023/07/25 22:14:25;;;;;;;4.38;2.90;;;17.60;96.70;;;;;;10523205;28;20197;-88
2023/07/25 22:19:29;;;;;;;2.58;2.38;;;17.50;98.60;;;;;;10506293;28;20266;-89
2023/07/25 22:24:31;;;;;;;5.43;2.88;;;17.50;97.80;;;;;;10540252;28;20255;-89
2023/07/25 22:29:34;;;;;;;4.30;3.55;;;17.60;96.50;;;;;;10540873;28;20224;-89
2023/07/25 22:34:38;;;;;;;4.80;2.58;;;17.50;97.90;;;;;;10540133;28;20258;-89
2023/07/25 22:39:40;;;;;;;2.78;2.28;;;17.40;98.80;;;;;;10539840;28;20236;-89
2023/07/25 22:44:43;;;;;;;4.35;2.95;;;17.40;97.90;;;;;;10540164;28;20190;-89
2023/07/25 22:49:52;;;;;;;2.60;2.40;;;17.50;99.10;;;;;;10521512;28;20205;-89
2023/07/25 22:54:55;;;;;;;3.40;2.63;;;17.40;99.10;;;;;;10538087;28;20213;-89
2023/07/25 22:59:58;;;;;;;4.30;2.58;;;17.40;98.60;;;;;;10521079;28;20218;-88
2023/07/25 23:05:01;;;;;;;4.10;2.88;;;17.40;98.70;;;;;;10521669;28;20275;-89
2023/07/25 23:10:04;;;;;;;3.53;2.75;;;17.50;98.70;;;;;;10521384;28;20286;-89
2023/07/25 23:15:10;;;;;;;4.78;2.20;;;17.40;99.20;;;;;;10539433;28;20247;-88
2023/07/25 23:20:12;;;;;;;4.30;2.92;;;17.40;99.00;;;;;;10538814;28;20757;-89
2023/07/25 23:25:15;;;;;;;3.20;2.88;;;17.50;98.80;;;;;;10538869;28;20247;-88
2023/07/25 23:30:17;;;;;;;2.45;2.22;;;17.50;97.90;;;;;;10538912;28;20186;-88
2023/07/25 23:35:20;;;;;;;7.45;3.38;;;17.60;97.40;;;;;;10538075;28;20239;-88
2023/07/25 23:40:23;;;;;;;2.90;2.70;;;17.60;98.00;;;;;;10538151;28;20225;-88
2023/07/25 23:45:26;;;;;;;6.03;3.40;;;17.60;98.10;;;;;;10537362;28;20524;-88
2023/07/25 23:50:28;;;;;;;4.15;3.63;;;17.40;99.90;;;;;;10520372;28;20614;-89
2023/07/25 23:55:32;;;;;;;6.00;4.07;;;17.30;99.90;;;;;;10538047;28;20541;-89
